Time;durP1;ratioP1;P1;durP2;ratioP2;P2;SDS_P1;SDS_P2;PMS_P1;PMS_P2;Temp;Humidity;BMP_temperature;BMP_pressure;BME280_temperature;BME280_humidity;BME280_pressure;Samples;Min_cycle;Max_cycle;Signal;HPM_P1;HPM_P2
2023/12/31 00:02:04;;;;;;;9.10;6.70;;;;;;;4.36;93.04;96630.60;109318;1271;40692;-80
2023/12/31 00:04:36;;;;;;;7.80;5.60;;;;;;;4.33;93.34;96629.14;109278;1271;23116;-80
2023/12/31 00:07:07;;;;;;;6.10;4.30;;;;;;;4.32;93.65;96623.88;109270;1271;22536;-80
2023/12/31 00:09:39;;;;;;;7.70;4.70;;;;;;;4.34;93.89;96623.17;109311;1271;22552;-80
2023/12/31 00:12:11;;;;;;;14.30;7.50;;;;;;;4.36;93.94;96620.31;109252;1271;34279;-80
2023/12/31 00:14:42;;;;;;;15.00;8.70;;;;;;;4.33;93.83;96618.63;109317;1271;22524;-80
2023/12/31 00:17:13;;;;;;;11.80;6.60;;;;;;;4.23;93.62;96615.45;109290;1271;23897;-80
2023/12/31 00:19:49;;;;;;;10.90;5.50;;;;;;;4.14;93.67;96614.36;109223;1267;22517;-80
2023/12/31 00:22:24;;;;;;;13.20;10.10;;;;;;;4.10;93.90;96615.19;109266;1271;23074;-79
2023/12/31 00:24:55;;;;;;;12.10;7.90;;;;;;;4.08;94.14;96613.24;109294;1271;24321;-79
2023/12/31 00:27:26;;;;;;;11.40;7.40;;;;;;;4.10;94.51;96618.02;109290;1269;24209;-80
2023/12/31 00:29:58;;;;;;;10.20;5.80;;;;;;;4.12;94.80;96621.67;109289;1271;22483;-80
2023/12/31 00:32:28;;;;;;;8.90;5.60;;;;;;;4.16;94.92;96621.46;109274;1271;22525;-80
2023/12/31 00:34:59;;;;;;;7.70;4.40;;;;;;;4.23;95.23;96623.09;109317;1271;22521;-80
2023/12/31 00:37:30;;;;;;;14.50;7.50;;;;;;;4.30;95.40;96621.90;109333;1264;25418;-80
2023/12/31 00:40:01;;;;;;;12.90;7.00;;;;;;;4.33;95.05;96624.05;109341;1271;23347;-80
2023/12/31 00:42:32;;;;;;;10.90;6.40;;;;;;;4.24;94.72;96623.75;109277;1269;26057;-79
2023/12/31 00:45:03;;;;;;;9.60;6.00;;;;;;;4.17;94.61;96625.30;109272;1271;23310;-80
2023/12/31 00:47:34;;;;;;;12.40;8.00;;;;;;;4.17;95.03;96629.25;109296;1270;22528;-80
2023/12/31 00:50:07;;;;;;;11.20;6.90;;;;;;;4.21;95.18;96624.46;109298;1269;22666;-80
2023/12/31 00:52:38;;;;;;;10.40;6.80;;;;;;;4.23;95.20;96630.80;109263;1271;22571;-80
2023/12/31 00:55:18;;;;;;;9.20;6.00;;;;;;;4.24;95.42;96635.14;109289;1271;22518;-80
2023/12/31 00:57:50;;;;;;;9.00;5.40;;;;;;;4.27;95.58;96629.83;109280;1270;22545;-80
2023/12/31 01:00:21;;;;;;;9.50;5.70;;;;;;;4.28;95.63;96631.73;109324;1271;24949;-80
2023/12/31 01:02:52;;;;;;;10.00;5.70;;;;;;;4.27;95.62;96630.94;109276;1271;22720;-80
2023/12/31 01:05:23;;;;;;;8.30;5.40;;;;;;;4.26;95.70;96633.33;109299;1268;25485;-80
2023/12/31 01:07:56;;;;;;;8.70;6.00;;;;;;;4.25;95.88;96630.64;109264;1264;22508;-78
2023/12/31 01:10:30;;;;;;;10.20;6.80;;;;;;;4.27;96.16;96631.55;109245;1271;25517;-79
2023/12/31 01:13:00;;;;;;;7.70;4.90;;;;;;;4.29;96.32;96628.88;109257;1271;40149;-79
2023/12/31 01:15:32;;;;;;;7.40;5.30;;;;;;;4.29;96.32;96633.44;109354;1271;22545;-79
2023/12/31 01:18:03;;;;;;;6.90;4.80;;;;;;;4.31;96.53;96639.13;109287;1271;22480;-81
2023/12/31 01:21:26;;;;;;;6.50;4.60;;;;;;;4.33;96.59;96639.84;109337;1271;23837;-80
2023/12/31 01:23:57;;;;;;;13.00;7.50;;;;;;;4.35;96.49;96639.39;108722;1278;22566;-80
2023/12/31 01:26:28;;;;;;;18.80;9.20;;;;;;;4.33;96.47;96640.36;109273;1265;22594;-80
2023/12/31 01:28:59;;;;;;;21.80;10.80;;;;;;;4.24;95.93;96641.27;109293;1264;22472;-80
2023/12/31 01:34:58;;;;;;;13.00;7.70;;;;;;;4.11;96.35;96644.73;109322;1271;22533;-80
2023/12/31 01:37:29;;;;;;;11.60;6.80;;;;;;;4.08;96.40;96643.56;109324;1269;23020;-80
2023/12/31 01:40:00;;;;;;;9.10;5.10;;;;;;;4.08;96.78;96642.30;109336;1267;23859;-80
2023/12/31 01:42:31;;;;;;;12.20;7.00;;;;;;;4.07;96.76;96643.28;109261;1267;41144;-80
2023/12/31 01:45:03;;;;;;;14.80;7.80;;;;;;;4.05;96.62;96644.09;109399;1264;22600;-80
2023/12/31 01:47:35;;;;;;;13.80;8.50;;;;;;;4.03;96.70;96643.90;109373;1269;22523;-80
2023/12/31 01:50:09;;;;;;;19.00;9.10;;;;;;;4.00;96.79;96643.17;109380;1271;22536;-80
2023/12/31 01:52:44;;;;;;;14.90;8.20;;;;;;;3.97;96.75;96639.81;109329;1271;22962;-80
2023/12/31 01:55:15;;;;;;;14.00;8.20;;;;;;;3.96;96.73;96642.26;109289;1264;22549;-80
2023/12/31 01:57:49;;;;;;;14.10;8.00;;;;;;;3.97;97.08;96645.91;109343;1271;22513;-81
2023/12/31 02:00:22;;;;;;;11.60;7.10;;;;;;;4.00;97.14;96643.02;109346;1264;22547;-80
2023/12/31 02:02:59;;;;;;;9.30;6.30;;;;;;;4.00;97.26;96638.08;109325;1271;23333;-81
2023/12/31 02:05:30;;;;;;;10.90;6.60;;;;;;;3.99;97.07;96635.02;109338;1250;23206;-80
2023/12/31 02:08:01;;;;;;;10.70;6.40;;;;;;;3.93;97.00;96626.45;109317;1271;22529;-80
2023/12/31 02:11:14;;;;;;;9.40;6.20;;;;;;;3.92;96.99;96627.91;109339;1251;22524;-80
2023/12/31 02:13:45;;;;;;;10.20;6.70;;;;;;;3.92;97.06;96628.89;109322;1271;22621;-80
2023/12/31 02:16:17;;;;;;;14.50;8.00;;;;;;;3.88;96.98;96630.20;109324;1250;22527;-80
2023/12/31 02:18:54;;;;;;;11.30;6.20;;;;;;;3.86;97.18;96639.63;109348;1271;23277;-80
2023/12/31 02:21:27;;;;;;;9.90;6.20;;;;;;;3.87;97.24;96639.37;109331;1271;23694;-79
2023/12/31 02:24:01;;;;;;;9.60;5.90;;;;;;;3.87;97.19;96635.90;109327;1268;25104;-80
2023/12/31 02:26:34;;;;;;;8.40;5.50;;;;;;;3.84;97.19;96632.75;109394;1271;22707;-80
2023/12/31 02:29:05;;;;;;;11.30;7.30;;;;;;;3.81;96.90;96634.87;109339;1264;24270;-80
2023/12/31 02:31:38;;;;;;;13.70;7.90;;;;;;;3.77;96.93;96633.82;109349;1265;22523;-79
2023/12/31 02:34:13;;;;;;;12.80;7.80;;;;;;;3.72;96.82;96631.90;109410;1271;22566;-80
2023/12/31 02:36:44;;;;;;;12.40;6.80;;;;;;;3.63;96.62;96632.25;109388;1271;22528;-80
2023/12/31 02:39:16;;;;;;;14.20;8.10;;;;;;;3.50;96.35;96627.66;109356;1271;22530;-79
2023/12/31 02:41:49;;;;;;;14.10;8.00;;;;;;;3.44;96.68;96631.15;109338;1271;34194;-80
2023/12/31 02:44:21;;;;;;;13.40;7.30;;;;;;;3.37;96.66;96630.55;109323;1271;25451;-81
2023/12/31 02:46:51;;;;;;;13.10;7.70;;;;;;;3.31;96.64;96633.98;109315;1264;22526;-81
2023/12/31 02:49:23;;;;;;;9.70;6.00;;;;;;;3.28;96.83;96630.73;109358;1271;22555;-81
2023/12/31 02:51:54;;;;;;;9.80;5.60;;;;;;;3.26;96.82;96630.02;109328;1271;22533;-80
2023/12/31 02:54:24;;;;;;;11.00;6.50;;;;;;;3.25;97.18;96633.30;109371;1271;22540;-80
2023/12/31 02:56:57;;;;;;;9.40;5.80;;;;;;;3.23;97.04;96634.92;109317;1271;23344;-80
2023/12/31 02:59:28;;;;;;;8.90;5.80;;;;;;;3.20;97.14;96632.64;109301;1264;22520;-81
2023/12/31 03:01:59;;;;;;;11.40;7.00;;;;;;;3.21;97.22;96630.77;109313;1266;37349;-80
2023/12/31 03:04:30;;;;;;;9.40;6.20;;;;;;;3.19;96.99;96631.31;109297;1266;22524;-80
2023/12/31 03:07:01;;;;;;;7.60;4.50;;;;;;;3.16;97.06;96628.17;109315;1271;22636;-80
2023/12/31 03:09:32;;;;;;;8.30;5.60;;;;;;;3.16;97.03;96625.04;109289;1271;22535;-80
2023/12/31 03:12:03;;;;;;;10.70;6.10;;;;;;;3.15;96.88;96621.08;109291;1265;22843;-80
2023/12/31 03:14:34;;;;;;;9.80;5.30;;;;;;;3.11;96.79;96620.59;109281;1264;24712;-80
2023/12/31 03:17:05;;;;;;;8.60;6.00;;;;;;;3.05;96.64;96619.96;109280;1265;22525;-81
2023/12/31 03:19:40;;;;;;;9.90;6.20;;;;;;;2.98;96.61;96624.56;109293;1271;22532;-80
2023/12/31 03:22:14;;;;;;;9.50;6.20;;;;;;;2.98;96.81;96624.49;109134;1271;158765;-79
2023/12/31 03:24:45;;;;;;;9.00;5.80;;;;;;;2.97;96.93;96623.66;109270;1264;22540;-80
2023/12/31 03:27:16;;;;;;;9.70;6.80;;;;;;;2.94;96.72;96628.80;109345;1265;22529;-80
2023/12/31 03:29:50;;;;;;;10.50;6.60;;;;;;;2.91;96.91;96624.19;109318;1271;23033;-80
2023/12/31 03:32:21;;;;;;;11.20;6.80;;;;;;;2.90;97.02;96630.70;109297;1264;29665;-80
2023/12/31 03:34:51;;;;;;;9.80;6.20;;;;;;;2.90;97.11;96631.70;109255;1271;22560;-80
2023/12/31 03:37:22;;;;;;;7.80;5.10;;;;;;;2.90;97.21;96635.48;109293;1264;24232;-80
2023/12/31 03:39:54;;;;;;;9.50;5.90;;;;;;;2.95;97.47;96630.28;109300;1263;23704;-80
2023/12/31 03:42:26;;;;;;;9.20;5.40;;;;;;;2.98;97.53;96627.13;109246;1271;26194;-81
2023/12/31 03:44:57;;;;;;;7.20;4.80;;;;;;;3.04;97.74;96626.13;109259;1271;22645;-80
2023/12/31 03:47:28;;;;;;;7.90;5.50;;;;;;;3.08;97.64;96621.02;109285;1271;24227;-80
2023/12/31 03:49:59;;;;;;;9.60;6.40;;;;;;;3.04;97.33;96630.38;109318;1264;22555;-80
2023/12/31 03:52:30;;;;;;;10.60;6.30;;;;;;;2.93;97.02;96633.45;109362;1268;22726;-80
2023/12/31 03:55:01;;;;;;;9.00;5.00;;;;;;;2.88;97.09;96634.65;109385;1247;22517;-80
2023/12/31 03:57:32;;;;;;;8.90;5.80;;;;;;;2.87;97.23;96634.10;109347;1271;22834;-80
2023/12/31 04:00:04;;;;;;;9.10;5.40;;;;;;;2.87;97.37;96633.46;109321;1271;24222;-80
2023/12/31 04:02:35;;;;;;;8.70;5.10;;;;;;;2.85;97.22;96627.89;109270;1270;22555;-80
2023/12/31 04:05:10;;;;;;;8.20;5.00;;;;;;;2.84;97.15;96630.02;109285;1271;22542;-80
2023/12/31 04:07:43;;;;;;;9.30;5.20;;;;;;;2.82;96.83;96625.14;109258;1265;24006;-80
2023/12/31 04:10:14;;;;;;;8.70;5.00;;;;;;;2.79;96.90;96624.02;109331;1271;22522;-79
2023/12/31 04:12:45;;;;;;;8.60;4.90;;;;;;;2.76;96.72;96625.89;109288;1271;23818;-79
2023/12/31 04:15:16;;;;;;;8.20;4.60;;;;;;;2.72;96.65;96627.11;109319;1265;22525;-80
2023/12/31 04:17:49;;;;;;;8.90;4.90;;;;;;;2.69;96.63;96625.96;109270;1271;22555;-80
2023/12/31 04:20:20;;;;;;;7.20;4.80;;;;;;;2.64;96.40;96623.94;109295;1271;22528;-80
2023/12/31 04:22:51;;;;;;;7.50;4.80;;;;;;;2.59;96.31;96625.97;109293;1271;22517;-80
2023/12/31 04:25:22;;;;;;;7.80;4.80;;;;;;;2.57;96.44;96623.31;109289;1264;22576;-80
2023/12/31 04:27:53;;;;;;;8.80;4.50;;;;;;;2.53;96.31;96621.51;109304;1248;22521;-77
2023/12/31 04:30:24;;;;;;;8.70;5.00;;;;;;;2.49;96.11;96618.67;109260;1271;25429;-77
2023/12/31 04:32:55;;;;;;;8.00;4.90;;;;;;;2.43;96.07;96622.58;109328;1264;24298;-77
2023/12/31 04:35:25;;;;;;;6.60;4.60;;;;;;;2.41;96.23;96623.85;109317;1268;24261;-78
2023/12/31 04:37:58;;;;;;;7.30;4.40;;;;;;;2.40;96.34;96624.88;109303;1264;22520;-79
2023/12/31 04:40:29;;;;;;;6.10;3.80;;;;;;;2.40;96.44;96629.14;109268;1271;25388;-80
2023/12/31 04:43:03;;;;;;;9.30;4.10;;;;;;;2.38;96.35;96632.13;109287;1268;42763;-80
2023/12/31 04:45:34;;;;;;;5.80;4.10;;;;;;;2.35;96.25;96625.94;109284;1263;22622;-80
2023/12/31 04:48:06;;;;;;;6.30;4.50;;;;;;;2.33;96.31;96629.77;109323;1264;22586;-80
2023/12/31 04:50:38;;;;;;;7.00;4.30;;;;;;;2.37;96.77;96628.02;109273;1271;23898;-80
2023/12/31 04:53:11;;;;;;;7.40;3.90;;;;;;;2.40;96.75;96633.25;109333;1271;25241;-80
2023/12/31 04:55:43;;;;;;;6.10;3.40;;;;;;;2.38;96.73;96635.42;109331;1271;22555;-77
2023/12/31 04:58:15;;;;;;;7.10;4.00;;;;;;;2.32;96.40;96627.23;109333;1265;22510;-77
2023/12/31 05:00:48;;;;;;;5.70;3.20;;;;;;;2.31;96.59;96623.02;109360;1271;25296;-80
2023/12/31 05:03:19;;;;;;;7.30;3.70;;;;;;;2.31;96.66;96621.35;109306;1264;22566;-80
2023/12/31 05:05:51;;;;;;;5.40;3.50;;;;;;;2.23;96.33;96616.87;109207;1271;22991;-80
2023/12/31 05:08:22;;;;;;;7.30;4.40;;;;;;;2.19;96.27;96612.36;109321;1264;22555;-79
2023/12/31 05:10:53;;;;;;;6.50;3.50;;;;;;;2.09;95.94;96610.09;109315;1265;24921;-80
2023/12/31 05:13:25;;;;;;;7.90;3.90;;;;;;;1.96;95.65;96610.96;109252;1265;23914;-80
2023/12/31 05:15:56;;;;;;;8.80;5.30;;;;;;;1.90;96.02;96608.31;109289;1271;22991;-80
2023/12/31 05:18:27;;;;;;;7.80;4.20;;;;;;;1.82;96.04;96610.73;109310;1264;22524;-80
2023/12/31 05:20:59;;;;;;;6.10;3.70;;;;;;;1.75;96.10;96613.27;109282;1271;22518;-79
2023/12/31 05:23:31;;;;;;;5.80;3.70;;;;;;;1.76;96.36;96609.52;109280;1264;22488;-79
2023/12/31 05:26:02;;;;;;;4.90;2.90;;;;;;;1.78;96.64;96605.23;109297;1271;25226;-79
2023/12/31 05:28:33;;;;;;;6.50;3.30;;;;;;;1.82;96.83;96599.05;109297;1271;22643;-79
2023/12/31 05:31:04;;;;;;;4.70;3.40;;;;;;;1.87;97.10;96594.17;109307;1271;22612;-79
2023/12/31 05:33:40;;;;;;;5.20;3.60;;;;;;;1.85;97.03;96592.20;109331;1265;22531;-79
2023/12/31 05:36:13;;;;;;;5.00;3.70;;;;;;;1.80;96.69;96597.06;109314;1271;22544;-79
2023/12/31 05:38:44;;;;;;;4.70;2.70;;;;;;;1.72;96.22;96597.15;109298;1265;23404;-80
2023/12/31 05:41:16;;;;;;;6.80;2.90;;;;;;;1.67;96.20;96595.32;109298;1271;22520;-79
2023/12/31 05:43:49;;;;;;;4.70;2.50;;;;;;;1.58;95.93;96592.12;109260;1268;22521;-80
2023/12/31 05:46:22;;;;;;;4.90;3.00;;;;;;;1.55;96.08;96588.34;109275;1265;22511;-80
2023/12/31 05:48:53;;;;;;;7.40;3.80;;;;;;;1.52;96.13;96589.60;109335;1265;25301;-80
2023/12/31 05:51:24;;;;;;;7.20;3.80;;;;;;;1.52;96.48;96589.44;109296;1268;25375;-79
2023/12/31 05:53:55;;;;;;;11.30;3.70;;;;;;;1.46;96.25;96586.43;109252;1271;22538;-80
2023/12/31 05:56:26;;;;;;;5.10;2.80;;;;;;;1.51;96.96;96583.63;109255;1265;23773;-80
2023/12/31 05:58:57;;;;;;;7.20;3.10;;;;;;;1.58;96.96;96586.28;109289;1264;22524;-79
2023/12/31 06:01:28;;;;;;;4.80;3.00;;;;;;;1.62;97.09;96578.00;109268;1271;27567;-80
2023/12/31 06:03:59;;;;;;;5.90;2.80;;;;;;;1.60;97.01;96578.70;109254;1271;24051;-79
2023/12/31 06:06:33;;;;;;;6.50;3.50;;;;;;;1.55;96.64;96581.49;109298;1271;22672;-79
2023/12/31 06:09:04;;;;;;;8.60;3.50;;;;;;;1.45;96.37;96580.70;109280;1271;24929;-79
2023/12/31 06:11:40;;;;;;;5.30;3.40;;;;;;;1.33;96.02;96583.77;109294;1265;24143;-80
2023/12/31 06:14:19;;;;;;;6.10;3.50;;;;;;;1.20;95.96;96582.90;109367;1265;22521;-81
2023/12/31 06:16:50;;;;;;;5.70;3.30;;;;;;;1.16;96.60;96575.70;109326;1266;22615;-80
2023/12/31 06:19:23;;;;;;;4.50;2.90;;;;;;;1.30;97.57;96574.23;109364;1264;23859;-80
2023/12/31 06:21:53;;;;;;;6.20;3.10;;;;;;;1.42;97.87;96573.71;109347;1271;30019;-79
2023/12/31 06:24:26;;;;;;;4.10;2.40;;;;;;;1.46;97.60;96570.08;109310;1271;22537;-80
2023/12/31 06:26:57;;;;;;;4.50;2.30;;;;;;;1.46;97.26;96569.77;109318;1264;25268;-80
2023/12/31 06:29:28;;;;;;;3.60;2.50;;;;;;;1.46;97.23;96567.77;109299;1268;22910;-80
2023/12/31 06:31:59;;;;;;;5.60;3.10;;;;;;;1.34;96.92;96563.41;109308;1265;22555;-79
2023/12/31 06:34:30;;;;;;;5.30;3.60;;;;;;;1.25;96.78;96566.69;109228;1250;22535;-80
2023/12/31 06:37:02;;;;;;;5.30;3.20;;;;;;;1.21;96.94;96565.77;109292;1268;22522;-80
2023/12/31 06:39:38;;;;;;;6.20;3.40;;;;;;;1.21;97.27;96559.83;109356;1268;22568;-80
2023/12/31 06:42:11;;;;;;;5.80;4.20;;;;;;;1.27;97.88;96557.91;109277;1271;22557;-79
2023/12/31 06:44:43;;;;;;;13.80;8.60;;;;;;;1.39;97.85;96556.98;109279;1265;22564;-80
2023/12/31 06:47:16;;;;;;;21.20;16.30;;;;;;;1.50;98.00;96559.30;109297;1264;22533;-79
2023/12/31 06:49:51;;;;;;;10.60;7.20;;;;;;;1.57;97.92;96557.56;109248;1265;25952;-80
2023/12/31 06:52:22;;;;;;;8.50;4.80;;;;;;;1.65;97.96;96551.69;109238;1271;25430;-80
2023/12/31 06:54:55;;;;;;;13.80;10.30;;;;;;;1.75;98.22;96546.56;109333;1271;22510;-80
2023/12/31 06:57:26;;;;;;;7.50;4.10;;;;;;;1.82;98.15;96544.58;109317;1265;22546;-80
2023/12/31 07:00:00;;;;;;;8.20;4.40;;;;;;;1.90;98.11;96539.55;109334;1271;22517;-81
2023/12/31 07:02:31;;;;;;;9.00;6.30;;;;;;;2.00;98.29;96537.14;109312;1265;22541;-81
2023/12/31 07:05:03;;;;;;;9.70;6.30;;;;;;;2.02;97.70;96535.62;109199;1272;25240;-81
2023/12/31 07:07:34;;;;;;;9.60;7.90;;;;;;;1.99;97.32;96531.36;109216;1270;23914;-81
2023/12/31 07:10:08;;;;;;;7.60;6.10;;;;;;;1.97;96.94;96527.02;109233;1265;22540;-81
2023/12/31 07:12:44;;;;;;;10.20;5.60;;;;;;;2.03;96.96;96528.63;109190;1265;23830;-81
2023/12/31 07:15:14;;;;;;;10.60;5.30;;;;;;;2.09;96.62;96527.41;109196;1265;22537;-81
2023/12/31 07:17:46;;;;;;;9.10;5.10;;;;;;;1.97;95.81;96528.17;109176;1265;24212;-81
2023/12/31 07:20:20;;;;;;;9.80;4.30;;;;;;;1.81;95.40;96524.80;109244;1272;26138;-81
2023/12/31 07:22:52;;;;;;;8.70;6.90;;;;;;;1.79;96.13;96525.91;109255;1265;22516;-81
2023/12/31 07:25:25;;;;;;;8.70;4.40;;;;;;;1.91;96.76;96523.28;109344;1265;23859;-81
2023/12/31 07:28:01;;;;;;;9.70;6.10;;;;;;;2.16;97.66;96522.45;109238;1265;22572;-82
2023/12/31 07:30:32;;;;;;;19.80;11.00;;;;;;;2.48;98.16;96523.54;109297;1266;22525;-82
2023/12/31 07:33:04;;;;;;;14.10;6.00;;;;;;;2.77;97.90;96523.60;109231;1271;25454;-82
2023/12/31 07:35:36;;;;;;;8.30;5.30;;;;;;;3.01;97.67;96517.86;109307;1264;22562;-82
2023/12/31 07:38:10;;;;;;;7.60;4.80;;;;;;;3.23;97.66;96517.05;109280;1265;22460;-82
2023/12/31 07:40:45;;;;;;;8.00;4.40;;;;;;;3.37;97.30;96511.98;109317;1268;25418;-82
2023/12/31 07:43:19;;;;;;;13.20;7.20;;;;;;;3.42;96.96;96510.20;109233;1271;24186;-82
2023/12/31 07:45:51;;;;;;;8.30;4.80;;;;;;;3.53;96.90;96505.84;109316;1264;22605;-81
2023/12/31 07:48:22;;;;;;;8.10;4.70;;;;;;;3.61;96.59;96502.63;109316;1265;22484;-82
2023/12/31 07:50:53;;;;;;;7.70;4.00;;;;;;;3.77;96.52;96498.91;109313;1248;22527;-82
2023/12/31 07:53:24;;;;;;;7.70;3.90;;;;;;;3.85;96.16;96500.30;109298;1271;22582;-82
2023/12/31 07:55:58;;;;;;;4.60;3.10;;;;;;;3.84;95.80;96498.73;109338;1266;23763;-82
2023/12/31 07:58:29;;;;;;;4.70;3.30;;;;;;;3.68;95.58;96497.48;109301;1268;22714;-82
2023/12/31 08:01:02;;;;;;;4.40;3.10;;;;;;;3.51;95.33;96496.89;109305;1271;22520;-82
2023/12/31 08:03:33;;;;;;;6.20;3.20;;;;;;;3.43;95.66;96493.20;109282;1271;22540;-82
2023/12/31 08:06:06;;;;;;;4.40;3.20;;;;;;;3.48;95.78;96490.86;109262;1271;22578;-81
2023/12/31 08:08:42;;;;;;;7.70;3.70;;;;;;;3.62;95.98;96493.67;109334;1265;24196;-81
2023/12/31 08:11:13;;;;;;;6.00;3.80;;;;;;;3.84;96.23;96490.77;109247;1264;22587;-81
2023/12/31 08:13:44;;;;;;;6.30;3.10;;;;;;;4.06;96.20;96482.63;109355;1266;22593;-81
2023/12/31 08:16:15;;;;;;;4.40;3.00;;;;;;;4.12;95.56;96475.49;109278;1271;23886;-81
2023/12/31 08:18:52;;;;;;;6.10;3.80;;;;;;;4.02;94.91;96473.64;109280;1269;22635;-81
2023/12/31 08:21:24;;;;;;;6.00;3.20;;;;;;;3.97;95.07;96470.91;109263;1271;23922;-81
2023/12/31 08:23:54;;;;;;;5.60;3.10;;;;;;;3.94;94.92;96470.11;109259;1271;22528;-82
2023/12/31 08:26:26;;;;;;;5.10;3.00;;;;;;;3.94;94.92;96468.92;109251;1265;23695;-82
2023/12/31 08:28:58;;;;;;;5.40;3.00;;;;;;;3.85;94.82;96463.33;109247;1264;23180;-82
2023/12/31 08:31:29;;;;;;;4.70;2.90;;;;;;;3.86;94.98;96464.02;109288;1271;23056;-82
2023/12/31 08:34:00;;;;;;;5.00;2.80;;;;;;;3.95;95.08;96461.54;109277;1271;23048;-82
2023/12/31 08:36:31;;;;;;;4.80;2.60;;;;;;;4.09;95.33;96467.93;109264;1271;25127;-83
2023/12/31 08:39:04;;;;;;;6.90;3.70;;;;;;;4.26;95.47;96469.44;109285;1271;22525;-82
2023/12/31 08:41:38;;;;;;;5.80;3.90;;;;;;;4.32;94.96;96466.73;109322;1265;22603;-82
2023/12/31 08:44:12;;;;;;;6.70;3.40;;;;;;;4.39;94.89;96468.46;109259;1271;22514;-82
2023/12/31 08:46:43;;;;;;;5.80;3.20;;;;;;;4.47;94.69;96465.25;109275;1271;22960;-82
2023/12/31 08:49:14;;;;;;;4.50;2.80;;;;;;;4.54;94.57;96466.62;109245;1262;22517;-83
2023/12/31 08:51:46;;;;;;;4.50;3.10;;;;;;;4.52;94.26;96467.60;109244;1267;31191;-83
2023/12/31 08:54:17;;;;;;;4.00;3.30;;;;;;;4.51;93.99;96472.52;109230;1265;22544;-82
2023/12/31 08:56:48;;;;;;;5.90;3.20;;;;;;;4.52;94.00;96469.11;109207;1264;22655;-83
2023/12/31 08:59:21;;;;;;;5.10;2.60;;;;;;;4.35;93.32;96459.95;109225;1264;23120;-82
2023/12/31 09:01:53;;;;;;;5.10;2.40;;;;;;;4.26;93.42;96462.52;109253;1250;22554;-82
2023/12/31 09:04:28;;;;;;;6.40;3.20;;;;;;;4.15;93.18;96461.20;109304;1265;25447;-82
2023/12/31 09:06:59;;;;;;;6.20;3.30;;;;;;;4.14;93.48;96455.41;109289;1267;24349;-82
2023/12/31 09:09:30;;;;;;;3.90;2.90;;;;;;;4.22;93.60;96449.48;109291;1271;22517;-82
2023/12/31 09:12:02;;;;;;;6.60;3.60;;;;;;;4.31;93.72;96446.45;109299;1264;22695;-83
2023/12/31 09:14:33;;;;;;;5.80;3.40;;;;;;;4.55;94.50;96441.27;109389;1271;22507;-83
2023/12/31 09:17:05;;;;;;;4.40;2.80;;;;;;;4.80;94.40;96435.20;109376;1263;24313;-82
2023/12/31 09:19:38;;;;;;;5.50;2.50;;;;;;;4.96;93.99;96429.88;109396;1263;24183;-82
2023/12/31 09:22:11;;;;;;;5.00;2.90;;;;;;;5.09;93.77;96430.68;109382;1263;22523;-83
2023/12/31 09:24:46;;;;;;;6.50;2.90;;;;;;;5.22;93.42;96423.09;109271;1271;24050;-83
2023/12/31 09:27:18;;;;;;;7.20;3.10;;;;;;;5.31;93.03;96417.91;109273;1265;23835;-83
2023/12/31 09:29:50;;;;;;;4.50;2.70;;;;;;;5.37;92.72;96414.77;109337;1271;23986;-83
2023/12/31 09:32:21;;;;;;;6.50;2.90;;;;;;;5.43;92.56;96412.71;109284;1271;22519;-83
2023/12/31 09:34:52;;;;;;;4.60;2.60;;;;;;;5.57;92.35;96412.79;109282;1271;22702;-84
2023/12/31 09:37:24;;;;;;;6.20;2.80;;;;;;;5.72;91.96;96401.27;109267;1268;22682;-83
2023/12/31 09:39:56;;;;;;;5.70;3.10;;;;;;;5.84;91.72;96397.52;109307;1271;22985;-84
2023/12/31 09:42:34;;;;;;;4.40;2.50;;;;;;;5.94;91.31;96388.59;109276;1265;25089;-81
2023/12/31 09:45:17;;;;;;;6.60;3.10;;;;;;;6.03;90.89;96374.77;109283;1271;22550;-84
2023/12/31 09:47:49;;;;;;;3.50;2.50;;;;;;;6.07;90.45;96363.44;109269;1264;22517;-84
2023/12/31 09:50:22;;;;;;;7.20;3.00;;;;;;;6.00;90.31;96360.82;109385;1265;22551;-84
2023/12/31 09:52:57;;;;;;;4.50;2.30;;;;;;;6.04;90.19;96359.20;109265;1265;25294;-84
2023/12/31 09:55:30;;;;;;;4.40;3.00;;;;;;;5.96;89.66;96355.44;109290;1265;22534;-84
2023/12/31 09:58:04;;;;;;;6.30;2.90;;;;;;;5.89;89.13;96355.41;109381;1264;22513;-83
2023/12/31 10:00:38;;;;;;;4.10;2.60;;;;;;;5.91;89.09;96355.45;109332;1264;23632;-84
2023/12/31 10:03:13;;;;;;;6.70;3.30;;;;;;;5.94;89.07;96350.33;109238;1271;23626;-83
2023/12/31 10:05:48;;;;;;;7.50;3.70;;;;;;;5.94;88.61;96343.33;109374;1264;23949;-83
2023/12/31 10:08:21;;;;;;;12.20;5.90;;;;;;;5.97;88.58;96342.07;109310;1266;22560;-82
2023/12/31 10:10:57;;;;;;;13.00;5.60;;;;;;;6.05;88.95;96345.38;109354;1268;23838;-84
2023/12/31 10:13:30;;;;;;;14.90;7.10;;;;;;;6.10;88.71;96334.93;109283;1268;22518;-84
2023/12/31 10:16:22;;;;;;;13.10;6.10;;;;;;;6.21;88.73;96324.52;109271;1268;26155;-84
2023/12/31 10:18:53;;;;;;;11.50;5.70;;;;;;;6.31;88.59;96317.84;109320;1265;24254;-84
2023/12/31 10:21:26;;;;;;;9.50;5.10;;;;;;;6.33;88.28;96312.17;109295;1267;23148;-84
2023/12/31 10:23:57;;;;;;;11.20;6.40;;;;;;;6.34;88.20;96313.23;109240;1265;22511;-84
2023/12/31 10:26:29;;;;;;;11.00;5.10;;;;;;;6.38;88.08;96306.25;109277;1264;22719;-84
2023/12/31 10:29:01;;;;;;;9.10;4.90;;;;;;;6.41;87.82;96305.57;109272;1271;24249;-84
2023/12/31 10:31:34;;;;;;;8.70;5.60;;;;;;;6.38;87.24;96308.45;109263;1268;22522;-83
2023/12/31 10:34:18;;;;;;;9.00;5.30;;;;;;;6.22;86.85;96311.67;109307;1271;22589;-84
2023/12/31 10:37:01;;;;;;;8.00;4.90;;;;;;;6.07;86.69;96313.81;109282;1271;22603;-84
2023/12/31 10:39:33;;;;;;;8.50;5.10;;;;;;;5.85;86.37;96311.63;109233;1266;22531;-83
2023/12/31 10:42:06;;;;;;;9.20;5.70;;;;;;;5.71;86.46;96304.48;109313;1265;22478;-80
2023/12/31 10:44:47;;;;;;;10.90;5.70;;;;;;;5.59;86.64;96302.67;109295;1266;23394;-83
2023/12/31 10:47:23;;;;;;;9.80;5.30;;;;;;;5.57;86.64;96303.77;109276;1264;22462;-83
2023/12/31 10:49:56;;;;;;;7.90;4.80;;;;;;;5.56;86.73;96300.24;109286;1266;23683;-83
2023/12/31 10:52:29;;;;;;;10.60;6.30;;;;;;;5.59;86.92;96292.00;109310;1266;22551;-83
2023/12/31 10:55:01;;;;;;;10.70;6.20;;;;;;;5.63;86.94;96286.71;109197;1271;23801;-83
2023/12/31 10:57:33;;;;;;;12.30;7.40;;;;;;;5.62;86.80;96277.98;109248;1268;22825;-81
2023/12/31 11:00:08;;;;;;;12.70;8.00;;;;;;;5.51;86.56;96270.81;109349;1271;22581;-83
2023/12/31 11:02:43;;;;;;;11.30;7.20;;;;;;;5.42;86.61;96269.91;109223;1265;23882;-82
2023/12/31 11:05:17;;;;;;;12.00;7.30;;;;;;;5.39;86.66;96263.55;109259;1271;22562;-83
2023/12/31 11:07:51;;;;;;;9.40;6.10;;;;;;;5.43;87.10;96261.92;109336;1268;23689;-82
2023/12/31 11:10:23;;;;;;;9.40;5.90;;;;;;;5.59;87.55;96262.08;109299;1271;22515;-82
2023/12/31 11:12:55;;;;;;;8.70;5.50;;;;;;;5.76;87.64;96256.13;109205;1268;22522;-82
2023/12/31 11:15:27;;;;;;;9.40;6.00;;;;;;;5.88;87.29;96258.33;109151;1265;22458;-82
2023/12/31 11:18:29;;;;;;;11.60;7.40;;;;;;;5.88;86.71;96257.06;109234;1271;22531;-82
2023/12/31 11:21:14;;;;;;;8.40;5.60;;;;;;;5.93;86.87;96257.60;109225;1271;22780;-82
2023/12/31 11:23:56;;;;;;;9.80;5.50;;;;;;;5.96;86.76;96252.61;109262;1264;23296;-82
2023/12/31 11:26:29;;;;;;;8.20;5.20;;;;;;;5.96;86.55;96248.52;109263;1271;25461;-82
2023/12/31 11:29:05;;;;;;;9.00;5.10;;;;;;;5.95;86.62;96245.62;109206;1264;24269;-82
2023/12/31 11:31:42;;;;;;;9.50;5.80;;;;;;;5.91;86.23;96244.06;109204;1268;26695;-83
2023/12/31 11:34:13;;;;;;;10.70;5.70;;;;;;;5.80;85.91;96240.04;109307;1265;22533;-83
2023/12/31 11:36:45;;;;;;;10.70;6.60;;;;;;;5.72;86.10;96232.38;109219;1265;22518;-82
2023/12/31 11:39:24;;;;;;;11.40;6.30;;;;;;;5.70;86.05;96228.21;109272;1271;22532;-83
2023/12/31 11:42:12;;;;;;;9.40;5.30;;;;;;;5.63;85.73;96218.46;109231;1268;23207;-83
2023/12/31 11:44:45;;;;;;;8.30;5.10;;;;;;;5.61;85.65;96209.17;109255;1268;23807;-83
2023/12/31 11:47:22;;;;;;;8.50;4.50;;;;;;;5.59;85.70;96204.65;109202;1268;22513;-81
2023/12/31 11:50:18;;;;;;;7.00;3.80;;;;;;;5.66;85.78;96204.63;109256;1271;22521;-83
2023/12/31 11:52:53;;;;;;;6.70;4.00;;;;;;;5.79;85.71;96195.49;109247;1271;22577;-82
2023/12/31 11:55:39;;;;;;;7.90;3.50;;;;;;;5.81;85.30;96191.81;109301;1266;24314;-83
2023/12/31 11:58:13;;;;;;;6.60;4.10;;;;;;;5.77;84.66;96182.27;109230;1266;24304;-83
2023/12/31 12:00:45;;;;;;;7.90;4.60;;;;;;;5.76;84.85;96188.73;109284;1271;25481;-83
2023/12/31 12:03:20;;;;;;;10.20;5.70;;;;;;;5.80;84.98;96180.23;109224;1271;22511;-83